Time;durP1;ratioP1;P1;durP2;ratioP2;P2;SDS_P1;SDS_P2;PMS_P1;PMS_P2;Temp;Humidity;BMP_temperature;BMP_pressure;BME280_temperature;BME280_humidity;BME280_pressure;Samples;Min_cycle;Max_cycle;Signal;HPM_P1;HPM_P2
2023/08/08 00:01:54;;;;;;;7.93;2.30;;;15.00;99.90;;;;;;5071252;28;20527;-58
2023/08/08 00:04:20;;;;;;;4.78;2.20;;;15.10;99.90;;;;;;5086229;28;20036;-57
2023/08/08 00:06:45;;;;;;;5.82;2.08;;;15.00;99.90;;;;;;5058634;28;20065;-57
2023/08/08 00:09:11;;;;;;;7.05;2.25;;;15.00;99.90;;;;;;5050140;28;20513;-58
2023/08/08 00:11:37;;;;;;;7.32;1.83;;;15.00;99.90;;;;;;5048217;28;20130;-58
2023/08/08 00:14:03;;;;;;;4.22;2.08;;;15.00;99.90;;;;;;5069234;28;20044;-58
2023/08/08 00:16:28;;;;;;;5.18;2.45;;;15.00;99.90;;;;;;5066786;28;20039;-57
2023/08/08 00:18:54;;;;;;;6.55;2.83;;;15.00;99.90;;;;;;5071932;28;20063;-57
2023/08/08 00:21:21;;;;;;;6.45;2.00;;;15.00;99.90;;;;;;5068367;28;20032;-57
2023/08/08 00:23:46;;;;;;;5.95;2.40;;;15.00;99.90;;;;;;5068280;28;20059;-57
2023/08/08 00:26:12;;;;;;;9.45;2.50;;;15.00;99.90;;;;;;5066994;28;20039;-59
2023/08/08 00:28:38;;;;;;;6.82;2.72;;;15.00;99.90;;;;;;5051231;28;20090;-57
2023/08/08 00:31:04;;;;;;;5.93;2.28;;;15.00;99.90;;;;;;5068677;28;20158;-58
2023/08/08 00:33:29;;;;;;;5.80;2.35;;;15.00;99.90;;;;;;5070010;28;20097;-58
2023/08/08 00:35:55;;;;;;;7.40;2.35;;;15.00;99.90;;;;;;5092246;28;22008;-57
2023/08/08 00:38:21;;;;;;;5.97;2.13;;;15.00;99.90;;;;;;5052087;28;20070;-58
2023/08/08 00:40:47;;;;;;;5.20;2.25;;;14.90;99.90;;;;;;5054644;28;20059;-58
2023/08/08 00:43:12;;;;;;;2.95;2.03;;;14.90;99.90;;;;;;5074492;28;20036;-58
2023/08/08 00:45:42;;;;;;;6.28;2.38;;;14.90;99.90;;;;;;5053349;28;20036;-58
2023/08/08 00:48:07;;;;;;;6.53;2.45;;;14.90;99.90;;;;;;5078416;28;20092;-57
2023/08/08 00:50:34;;;;;;;6.35;2.45;;;14.90;99.90;;;;;;5067343;28;20063;-58
2023/08/08 00:53:00;;;;;;;6.15;2.50;;;14.90;99.90;;;;;;5058696;28;20186;-58
2023/08/08 00:55:26;;;;;;;3.72;2.38;;;14.90;99.90;;;;;;5064676;28;20107;-57
2023/08/08 00:57:52;;;;;;;6.80;2.33;;;14.90;99.90;;;;;;5058692;28;20085;-57
2023/08/08 01:00:18;;;;;;;4.75;2.28;;;14.80;99.90;;;;;;5056895;28;20042;-58
2023/08/08 01:02:44;;;;;;;7.22;2.90;;;14.80;99.90;;;;;;5068839;28;20044;-58
2023/08/08 01:05:10;;;;;;;7.43;2.42;;;14.80;99.90;;;;;;5071337;28;20105;-57
2023/08/08 01:10:59;;;;;;;7.43;2.53;;;14.80;99.90;;;;;;5074015;28;20036;-58
2023/08/08 01:13:27;;;;;;;5.30;2.47;;;14.70;99.90;;;;;;5053850;28;20059;-58
2023/08/08 01:15:56;;;;;;;5.38;2.03;;;14.70;99.90;;;;;;5068097;28;20036;-57
2023/08/08 01:18:22;;;;;;;7.10;2.60;;;14.70;99.90;;;;;;5082497;28;20434;-58
2023/08/08 01:20:50;;;;;;;6.30;3.08;;;14.70;99.90;;;;;;5074733;28;20044;-58
2023/08/08 01:23:37;;;;;;;7.97;2.60;;;14.70;99.90;;;;;;5073788;28;20043;-57
2023/08/08 01:26:03;;;;;;;6.20;2.53;;;14.70;99.90;;;;;;5049980;28;20049;-58
2023/08/08 01:28:29;;;;;;;7.43;2.35;;;14.60;99.90;;;;;;5051646;28;20558;-59
2023/08/08 01:30:55;;;;;;;5.65;2.95;;;14.60;99.90;;;;;;5072464;28;20107;-57
2023/08/08 01:33:21;;;;;;;6.15;3.20;;;14.60;99.90;;;;;;5076004;28;20398;-59
2023/08/08 01:35:54;;;;;;;8.52;3.03;;;14.60;99.90;;;;;;5060421;28;20530;-58
2023/08/08 01:38:28;;;;;;;7.70;3.03;;;14.60;99.90;;;;;;5076678;28;20043;-58
2023/08/08 01:40:56;;;;;;;5.15;2.83;;;14.60;99.90;;;;;;5070240;28;20044;-58
2023/08/08 01:43:23;;;;;;;9.13;3.10;;;14.60;99.90;;;;;;5077132;28;20403;-59
2023/08/08 01:45:49;;;;;;;5.03;2.13;;;14.50;99.90;;;;;;5069662;28;20047;-56
2023/08/08 01:48:14;;;;;;;9.13;3.00;;;14.50;99.90;;;;;;5056253;28;20032;-59
2023/08/08 01:50:40;;;;;;;5.57;2.50;;;14.50;99.90;;;;;;5064757;28;20054;-58
2023/08/08 01:53:06;;;;;;;5.10;2.90;;;14.50;99.90;;;;;;5066626;28;20181;-57
2023/08/08 01:55:32;;;;;;;7.88;2.70;;;14.50;99.90;;;;;;5064760;28;20144;-58
2023/08/08 01:57:57;;;;;;;5.40;2.70;;;14.40;99.90;;;;;;5066657;28;20503;-56
2023/08/08 02:00:23;;;;;;;8.23;3.15;;;14.40;99.90;;;;;;5072037;28;20032;-58
2023/08/08 02:02:49;;;;;;;5.22;2.00;;;14.40;99.90;;;;;;5073919;28;20039;-58
2023/08/08 02:05:15;;;;;;;6.78;2.35;;;14.40;99.90;;;;;;5076891;28;20044;-58
2023/08/08 02:07:40;;;;;;;7.50;2.40;;;14.40;99.90;;;;;;5085568;28;20383;-59
2023/08/08 02:10:06;;;;;;;9.75;2.83;;;14.40;99.90;;;;;;5053404;28;20136;-58
2023/08/08 02:12:32;;;;;;;4.78;2.63;;;14.40;99.90;;;;;;5064386;28;20036;-58
2023/08/08 02:14:58;;;;;;;6.82;2.58;;;14.50;99.90;;;;;;5058601;28;20496;-59
2023/08/08 02:17:25;;;;;;;8.10;2.63;;;14.50;99.90;;;;;;5076511;28;20214;-59
2023/08/08 02:19:51;;;;;;;8.77;2.60;;;14.50;99.90;;;;;;5075445;28;20058;-58
2023/08/08 02:22:18;;;;;;;7.07;2.60;;;14.50;99.90;;;;;;5066743;28;20036;-59
2023/08/08 02:24:44;;;;;;;9.25;2.42;;;14.50;99.90;;;;;;5075748;28;20039;-58
2023/08/08 02:27:11;;;;;;;5.85;2.90;;;14.50;99.90;;;;;;5090155;28;20123;-59
2023/08/08 02:29:37;;;;;;;6.20;2.90;;;14.50;99.90;;;;;;5059179;28;20428;-59
2023/08/08 02:32:03;;;;;;;7.55;2.35;;;14.50;99.90;;;;;;5077316;28;20115;-58
2023/08/08 02:34:28;;;;;;;5.57;2.33;;;14.50;99.90;;;;;;5076721;28;20059;-58
2023/08/08 02:36:54;;;;;;;4.15;2.17;;;14.40;99.90;;;;;;5063559;28;20040;-58
2023/08/08 02:39:20;;;;;;;4.70;2.25;;;14.40;99.90;;;;;;5080623;28;20047;-57
2023/08/08 02:41:45;;;;;;;7.53;2.42;;;14.40;99.90;;;;;;5057371;28;20110;-58
2023/08/08 02:44:11;;;;;;;5.68;1.90;;;14.40;99.90;;;;;;5071185;28;20040;-58
2023/08/08 02:46:40;;;;;;;3.83;1.65;;;14.40;99.90;;;;;;5071414;28;20044;-58
2023/08/08 02:49:05;;;;;;;7.70;1.77;;;14.30;99.90;;;;;;5077118;28;20136;-58
2023/08/08 02:51:31;;;;;;;6.00;1.90;;;14.20;99.90;;;;;;5060475;28;20490;-57
2023/08/08 02:53:57;;;;;;;3.33;1.33;;;14.30;99.90;;;;;;5058123;28;20051;-58
2023/08/08 02:56:22;;;;;;;4.75;1.63;;;14.30;99.90;;;;;;5035912;28;20041;-58
2023/08/08 02:58:48;;;;;;;3.97;1.50;;;14.30;99.90;;;;;;5057587;28;20121;-57
2023/08/08 03:01:15;;;;;;;5.30;1.85;;;14.30;99.90;;;;;;5055682;28;20466;-58
2023/08/08 03:03:42;;;;;;;5.18;2.00;;;14.30;99.90;;;;;;5073723;28;20047;-58
2023/08/08 03:06:08;;;;;;;3.83;1.60;;;14.30;99.90;;;;;;5070173;28;20053;-58
2023/08/08 03:08:33;;;;;;;3.72;1.60;;;14.30;99.90;;;;;;5068553;28;20040;-57
2023/08/08 03:10:59;;;;;;;4.93;1.98;;;14.40;99.90;;;;;;5066396;28;20537;-58
2023/08/08 03:13:25;;;;;;;6.57;3.00;;;14.40;99.90;;;;;;5069062;28;20043;-55
2023/08/08 03:15:51;;;;;;;6.40;2.63;;;14.40;99.90;;;;;;5068391;28;20502;-58
2023/08/08 03:18:17;;;;;;;7.65;1.80;;;14.40;99.90;;;;;;5055316;28;20039;-58
2023/08/08 03:20:42;;;;;;;6.50;2.10;;;14.40;99.90;;;;;;5071066;28;20059;-58
2023/08/08 03:23:08;;;;;;;5.82;2.58;;;14.40;99.90;;;;;;5069346;28;20032;-59
2023/08/08 03:25:34;;;;;;;5.68;2.30;;;14.40;99.90;;;;;;5072493;28;20051;-58
2023/08/08 03:27:59;;;;;;;8.57;2.40;;;14.40;99.90;;;;;;5067601;28;20043;-57
2023/08/08 03:30:25;;;;;;;9.07;2.45;;;14.40;99.90;;;;;;5073021;28;20048;-58
2023/08/08 03:32:51;;;;;;;7.22;2.63;;;14.50;99.90;;;;;;5060790;28;20051;-58
2023/08/08 03:35:17;;;;;;;4.22;2.20;;;14.40;99.90;;;;;;5079641;28;20280;-57
2023/08/08 03:37:42;;;;;;;4.32;2.00;;;14.40;99.90;;;;;;5067480;28;20089;-57
2023/08/08 03:40:09;;;;;;;6.70;2.67;;;14.30;99.90;;;;;;5049584;28;20429;-58
2023/08/08 03:42:34;;;;;;;5.40;2.08;;;14.30;99.90;;;;;;5068798;28;20028;-57
2023/08/08 03:45:00;;;;;;;5.07;1.83;;;14.30;99.90;;;;;;5066011;28;23870;-58
2023/08/08 03:47:26;;;;;;;5.25;1.80;;;14.30;99.90;;;;;;5051601;28;20056;-58
2023/08/08 03:49:55;;;;;;;6.63;2.05;;;14.30;99.90;;;;;;5046208;28;20145;-58
2023/08/08 03:52:21;;;;;;;7.95;2.13;;;14.20;99.90;;;;;;5048032;28;20063;-58
2023/08/08 03:54:46;;;;;;;5.65;1.92;;;14.30;99.90;;;;;;5062730;28;20514;-58
2023/08/08 03:57:13;;;;;;;6.50;2.15;;;14.20;99.90;;;;;;5070416;28;20039;-57
2023/08/08 03:59:38;;;;;;;5.10;2.00;;;14.20;99.90;;;;;;5078809;28;20059;-59
2023/08/08 04:02:04;;;;;;;7.65;2.38;;;14.30;99.90;;;;;;5059820;22;20044;-54
2023/08/08 04:04:30;;;;;;;7.20;1.85;;;14.20;99.90;;;;;;5069563;28;20047;-54
2023/08/08 04:06:57;;;;;;;5.45;2.03;;;14.20;99.90;;;;;;5076445;28;20046;-54
2023/08/08 04:09:23;;;;;;;4.15;1.80;;;14.20;99.90;;;;;;5077030;28;20457;-54
2023/08/08 04:11:48;;;;;;;3.40;1.77;;;14.20;99.90;;;;;;5068719;28;20037;-55
2023/08/08 04:14:14;;;;;;;4.88;1.55;;;14.20;99.90;;;;;;5086146;28;20036;-52
2023/08/08 04:17:24;;;;;;;3.65;1.88;;;14.20;99.90;;;;;;5061332;28;20036;-53
2023/08/08 04:19:50;;;;;;;5.45;1.50;;;14.10;99.90;;;;;;5091917;28;20043;-55
2023/08/08 04:22:17;;;;;;;5.63;1.70;;;14.10;99.90;;;;;;5051854;28;20055;-54
2023/08/08 04:24:43;;;;;;;4.47;1.30;;;14.10;99.90;;;;;;5092872;28;20044;-54
2023/08/08 04:27:10;;;;;;;6.90;1.50;;;14.10;99.90;;;;;;5044502;28;20039;-56
2023/08/08 04:29:36;;;;;;;2.95;1.30;;;14.00;99.90;;;;;;5068967;28;20491;-50
2023/08/08 04:32:02;;;;;;;5.40;1.38;;;14.00;99.90;;;;;;5088283;28;20546;-53
2023/08/08 04:34:27;;;;;;;5.80;1.48;;;14.00;99.90;;;;;;5074313;28;20126;-54
2023/08/08 04:36:53;;;;;;;4.07;1.20;;;13.90;99.90;;;;;;5049986;28;20073;-52
2023/08/08 04:39:19;;;;;;;5.72;1.50;;;14.00;99.90;;;;;;5051341;28;20048;-53
2023/08/08 04:41:44;;;;;;;5.40;1.20;;;13.90;99.90;;;;;;5068967;28;20054;-55
2023/08/08 04:44:10;;;;;;;6.00;1.33;;;13.90;99.90;;;;;;5088207;28;22250;-54
2023/08/08 04:46:36;;;;;;;8.23;2.28;;;13.90;99.90;;;;;;5093488;28;20061;-54
2023/08/08 04:49:01;;;;;;;4.50;1.40;;;13.90;99.90;;;;;;5086943;28;20027;-55
2023/08/08 04:51:27;;;;;;;6.60;1.67;;;13.90;99.90;;;;;;5088128;28;20047;-53
2023/08/08 04:53:53;;;;;;;5.63;1.45;;;13.90;99.90;;;;;;5069904;28;20040;-54
2023/08/08 04:56:18;;;;;;;5.38;1.75;;;14.00;99.90;;;;;;5075085;28;20028;-54
2023/08/08 04:58:44;;;;;;;7.03;1.70;;;14.00;99.90;;;;;;5067157;28;20414;-54
2023/08/08 05:01:14;;;;;;;8.52;2.28;;;14.00;99.90;;;;;;5064240;28;20051;-54
2023/08/08 05:03:39;;;;;;;6.13;1.58;;;14.00;99.90;;;;;;5048008;28;20044;-55
2023/08/08 05:06:05;;;;;;;7.07;1.42;;;14.00;99.90;;;;;;5028281;28;20039;-54
2023/08/08 05:08:31;;;;;;;5.90;1.80;;;14.00;99.90;;;;;;5041041;28;20040;-54
2023/08/08 05:10:57;;;;;;;6.55;1.40;;;14.00;99.90;;;;;;5069228;28;20043;-54
2023/08/08 05:13:22;;;;;;;8.93;1.70;;;14.00;99.90;;;;;;5063544;28;20100;-54
2023/08/08 05:15:48;;;;;;;7.05;2.45;;;14.00;99.90;;;;;;5073367;28;20036;-56
2023/08/08 05:18:14;;;;;;;6.40;1.23;;;14.10;99.90;;;;;;5077417;28;20051;-55
2023/08/08 05:20:40;;;;;;;4.05;1.75;;;14.10;99.90;;;;;;5087675;28;20043;-54
2023/08/08 05:23:05;;;;;;;4.35;1.38;;;14.10;99.90;;;;;;5071293;28;20047;-55
2023/08/08 05:25:31;;;;;;;2.60;1.08;;;14.20;99.90;;;;;;5087275;28;20227;-56
2023/08/08 05:27:57;;;;;;;6.00;1.52;;;14.20;99.90;;;;;;5038041;28;20044;-56
2023/08/08 05:30:23;;;;;;;3.45;1.30;;;14.30;99.90;;;;;;5064201;28;20537;-56
2023/08/08 05:32:48;;;;;;;8.32;1.83;;;14.30;99.90;;;;;;5074938;28;20217;-55
2023/08/08 05:35:14;;;;;;;4.15;2.28;;;14.40;99.90;;;;;;5089711;28;20044;-55
2023/08/08 05:37:40;;;;;;;7.18;2.00;;;14.50;99.90;;;;;;5090327;28;20043;-55
2023/08/08 05:40:06;;;;;;;10.38;1.95;;;14.60;99.90;;;;;;5091399;28;20403;-52
2023/08/08 05:42:49;;;;;;;7.97;2.05;;;14.60;99.90;;;;;;5077672;28;20050;-51
2023/08/08 05:45:14;;;;;;;6.22;1.90;;;14.70;99.90;;;;;;5090146;28;20048;-53
2023/08/08 05:47:40;;;;;;;8.90;2.17;;;14.80;99.90;;;;;;5093717;28;20040;-51
2023/08/08 05:50:06;;;;;;;5.05;1.38;;;14.80;99.90;;;;;;5059868;28;20064;-53
2023/08/08 05:52:34;;;;;;;6.85;1.75;;;14.70;99.90;;;;;;5068272;28;20065;-51
2023/08/08 05:55:00;;;;;;;5.90;1.40;;;14.80;99.90;;;;;;5052747;28;20147;-51
2023/08/08 05:57:26;;;;;;;7.20;1.42;;;14.80;99.90;;;;;;5072423;28;20044;-51
2023/08/08 05:59:52;;;;;;;5.32;1.50;;;14.90;99.90;;;;;;5098802;28;20482;-53
2023/08/08 06:02:18;;;;;;;5.60;1.30;;;15.00;99.90;;;;;;5072362;28;20040;-51
2023/08/08 06:04:43;;;;;;;7.57;1.50;;;15.10;99.90;;;;;;5059498;28;20119;-52
2023/08/08 06:07:09;;;;;;;6.38;1.50;;;15.10;99.90;;;;;;5045619;28;20052;-52
2023/08/08 06:09:37;;;;;;;3.70;1.10;;;15.20;99.90;;;;;;5057332;28;20098;-52
2023/08/08 06:12:03;;;;;;;3.85;1.60;;;15.30;99.90;;;;;;5073041;28;20068;-55
2023/08/08 06:14:29;;;;;;;7.00;1.80;;;15.40;99.90;;;;;;5054552;28;20463;-54
2023/08/08 06:16:55;;;;;;;6.45;1.45;;;15.40;99.90;;;;;;5074707;28;20040;-53
2023/08/08 06:19:21;;;;;;;8.32;1.40;;;15.50;99.90;;;;;;5075114;28;20085;-52
2023/08/08 06:21:47;;;;;;;5.50;1.30;;;15.60;99.90;;;;;;5093366;28;20095;-53
2023/08/08 06:24:12;;;;;;;6.65;1.52;;;15.70;99.90;;;;;;5097054;28;20039;-51
2023/08/08 06:26:38;;;;;;;7.60;1.60;;;15.80;99.90;;;;;;5060907;28;20043;-54
2023/08/08 06:29:04;;;;;;;6.85;1.63;;;15.80;99.90;;;;;;5063113;28;20422;-52
2023/08/08 06:31:30;;;;;;;9.23;2.60;;;15.90;99.90;;;;;;5075150;28;20051;-52
2023/08/08 06:33:55;;;;;;;5.85;1.38;;;16.00;99.90;;;;;;5071970;28;20038;-54
2023/08/08 06:36:21;;;;;;;7.13;1.60;;;16.00;99.90;;;;;;5066570;28;20035;-55
2023/08/08 06:38:48;;;;;;;6.45;1.23;;;16.10;99.90;;;;;;5087022;28;20536;-55
2023/08/08 06:41:14;;;;;;;10.68;1.73;;;16.20;99.90;;;;;;5024313;28;20670;-53
2023/08/08 06:43:40;;;;;;;6.43;1.35;;;16.20;99.90;;;;;;5070521;28;20119;-52
2023/08/08 06:46:05;;;;;;;7.90;1.42;;;16.30;99.90;;;;;;5061017;28;20394;-53
2023/08/08 06:48:31;;;;;;;7.22;1.65;;;16.40;99.90;;;;;;5046965;28;20047;-57
2023/08/08 06:50:57;;;;;;;5.38;1.55;;;16.50;99.90;;;;;;5067041;28;20487;-52
2023/08/08 06:53:23;;;;;;;7.75;2.25;;;16.60;99.90;;;;;;5051215;28;20044;-53
2023/08/08 06:55:49;;;;;;;7.47;1.55;;;16.60;99.90;;;;;;5032019;28;20431;-56
2023/08/08 06:58:14;;;;;;;7.63;1.50;;;16.70;99.90;;;;;;5053541;28;20055;-55
2023/08/08 07:00:40;;;;;;;6.18;1.58;;;16.70;99.90;;;;;;5075307;28;20047;-52
2023/08/08 07:03:06;;;;;;;4.97;1.27;;;16.60;99.90;;;;;;5077516;28;20032;-55
2023/08/08 07:05:32;;;;;;;6.32;1.80;;;16.60;99.90;;;;;;5069956;28;20051;-56
2023/08/08 07:07:58;;;;;;;7.20;1.67;;;16.60;99.90;;;;;;5073173;28;20315;-54
2023/08/08 07:10:23;;;;;;;7.20;1.60;;;16.60;99.90;;;;;;5071688;28;20124;-54
2023/08/08 07:12:49;;;;;;;8.15;1.85;;;16.60;99.90;;;;;;5070551;28;20042;-56
2023/08/08 07:15:15;;;;;;;8.30;1.90;;;16.60;99.90;;;;;;5059330;28;20077;-53
2023/08/08 07:17:41;;;;;;;4.40;1.65;;;16.60;99.90;;;;;;5072510;28;20490;-54
2023/08/08 07:20:08;;;;;;;6.80;1.45;;;16.50;99.90;;;;;;5074733;28;20035;-55
2023/08/08 07:22:34;;;;;;;6.70;1.63;;;16.50;99.90;;;;;;5070629;28;20055;-55
2023/08/08 07:25:00;;;;;;;7.93;1.73;;;16.60;99.90;;;;;;5085301;28;20041;-55
2023/08/08 07:27:28;;;;;;;5.75;1.35;;;16.60;99.90;;;;;;5086654;28;20040;-53
2023/08/08 07:29:54;;;;;;;7.80;1.67;;;16.60;99.90;;;;;;5068985;28;20101;-55
2023/08/08 07:32:19;;;;;;;4.53;1.38;;;16.60;99.90;;;;;;5066290;28;20141;-55
2023/08/08 07:34:45;;;;;;;6.40;1.42;;;16.50;99.90;;;;;;5071896;28;20036;-56
2023/08/08 07:37:11;;;;;;;5.00;1.58;;;16.60;99.90;;;;;;5078243;28;20059;-56
2023/08/08 07:39:36;;;;;;;6.22;1.30;;;16.60;99.90;;;;;;5067961;28;20105;-55
2023/08/08 07:42:02;;;;;;;10.85;1.60;;;16.70;99.90;;;;;;5052748;28;20419;-56
2023/08/08 07:44:28;;;;;;;6.13;1.50;;;16.80;99.90;;;;;;5066999;28;20105;-54
2023/08/08 07:46:54;;;;;;;6.53;1.40;;;16.90;99.90;;;;;;5078517;28;20569;-55
2023/08/08 07:49:19;;;;;;;9.85;1.65;;;16.80;99.90;;;;;;5084634;28;20044;-55
2023/08/08 07:51:45;;;;;;;7.95;1.50;;;16.90;99.90;;;;;;5051106;28;20037;-56
2023/08/08 07:54:11;;;;;;;6.60;1.65;;;16.80;99.90;;;;;;5061523;28;20067;-56
2023/08/08 07:56:37;;;;;;;6.50;1.52;;;16.80;99.90;;;;;;5026152;28;20062;-56
2023/08/08 07:59:03;;;;;;;9.30;1.58;;;16.90;99.90;;;;;;5063117;28;20040;-56
2023/08/08 08:01:29;;;;;;;10.10;1.50;;;16.90;99.90;;;;;;5044380;28;20048;-56
2023/08/08 08:03:55;;;;;;;10.40;1.95;;;16.90;99.90;;;;;;5051571;28;20127;-56
2023/08/08 08:06:21;;;;;;;4.15;1.23;;;16.80;99.90;;;;;;5056124;28;20123;-56
2023/08/08 08:08:46;;;;;;;9.00;1.75;;;16.80;99.90;;;;;;5062639;28;20035;-56
2023/08/08 08:11:15;;;;;;;7.53;1.95;;;16.70;99.90;;;;;;5046688;28;20044;-57
2023/08/08 08:13:41;;;;;;;5.68;1.65;;;16.70;99.90;;;;;;5038379;28;20506;-53
2023/08/08 08:16:07;;;;;;;9.82;2.15;;;16.80;99.90;;;;;;5084044;28;20082;-53
2023/08/08 08:18:34;;;;;;;8.07;1.27;;;16.50;99.90;;;;;;5063015;28;20594;-52
2023/08/08 08:21:01;;;;;;;8.35;1.98;;;16.60;99.90;;;;;;5088772;28;20412;-53
2023/08/08 08:23:26;;;;;;;7.95;1.35;;;16.70;99.90;;;;;;5071179;28;20217;-56
2023/08/08 08:25:52;;;;;;;8.50;1.85;;;16.90;99.90;;;;;;5074125;28;20031;-56
2023/08/08 08:28:18;;;;;;;9.38;1.60;;;17.00;99.90;;;;;;5082177;28;20035;-55
2023/08/08 08:30:43;;;;;;;9.68;1.88;;;17.20;99.90;;;;;;5060574;28;20032;-55
2023/08/08 08:33:10;;;;;;;7.22;1.50;;;17.30;99.90;;;;;;5052314;28;20040;-54
2023/08/08 08:35:37;;;;;;;8.20;1.90;;;17.20;99.90;;;;;;5035218;28;20036;-54
2023/08/08 08:38:03;;;;;;;6.15;1.20;;;17.40;99.90;;;;;;5064283;28;20115;-53
2023/08/08 08:40:33;;;;;;;8.98;1.65;;;17.50;99.90;;;;;;5050906;28;20040;-56
2023/08/08 08:43:00;;;;;;;9.02;1.85;;;17.40;99.90;;;;;;5073727;28;20274;-52
2023/08/08 08:45:28;;;;;;;8.45;1.75;;;17.30;99.90;;;;;;5086559;28;20066;-54
2023/08/08 08:47:57;;;;;;;8.05;1.77;;;17.10;99.90;;;;;;5063533;28;20036;-56
2023/08/08 08:50:27;;;;;;;4.60;1.23;;;17.10;99.90;;;;;;5059524;28;20048;-54
2023/08/08 08:52:55;;;;;;;8.63;1.63;;;17.30;99.90;;;;;;5082017;28;20425;-55
2023/08/08 08:55:22;;;;;;;5.25;1.30;;;17.30;99.90;;;;;;5058468;28;20036;-55
2023/08/08 08:57:50;;;;;;;6.80;1.92;;;17.50;99.90;;;;;;5076747;28;20404;-54
2023/08/08 09:00:16;;;;;;;4.95;1.48;;;17.60;99.90;;;;;;5047803;28;20110;-56
2023/08/08 09:02:42;;;;;;;5.32;1.73;;;17.70;99.90;;;;;;5078116;28;20063;-56
2023/08/08 09:05:11;;;;;;;8.10;1.20;;;17.80;99.90;;;;;;5062356;28;20044;-55
2023/08/08 09:07:37;;;;;;;9.82;2.45;;;17.80;99.90;;;;;;5055102;28;20458;-56
2023/08/08 09:10:03;;;;;;;6.68;1.50;;;17.90;99.90;;;;;;5057548;28;20032;-57
2023/08/08 09:12:33;;;;;;;5.30;1.50;;;17.90;99.90;;;;;;5073543;28;20119;-56
2023/08/08 09:14:59;;;;;;;5.15;1.10;;;17.70;99.90;;;;;;5048295;28;20082;-56
2023/08/08 09:17:26;;;;;;;3.33;1.10;;;17.60;99.90;;;;;;5065341;28;20080;-55
2023/08/08 09:19:54;;;;;;;7.13;1.60;;;17.40;99.90;;;;;;5063547;28;20044;-54
2023/08/08 09:22:20;;;;;;;6.47;1.17;;;17.30;99.90;;;;;;5081303;28;20555;-59
2023/08/08 09:24:46;;;;;;;7.60;1.20;;;17.30;99.90;;;;;;5050895;28;20041;-57
2023/08/08 09:27:12;;;;;;;3.08;1.10;;;17.30;99.90;;;;;;5062476;28;20081;-57
2023/08/08 09:29:38;;;;;;;10.25;2.33;;;17.20;99.90;;;;;;5084280;28;20028;-57
2023/08/08 09:32:06;;;;;;;8.13;1.80;;;17.30;99.90;;;;;;5069628;28;20032;-57
2023/08/08 09:34:32;;;;;;;9.85;2.28;;;17.30;99.90;;;;;;5063225;28;20048;-57
2023/08/08 09:36:58;;;;;;;6.50;1.48;;;17.40;99.90;;;;;;5067814;28;20500;-57
2023/08/08 09:39:24;;;;;;;8.27;1.50;;;17.60;99.90;;;;;;5065536;28;20623;-57
2023/08/08 09:41:50;;;;;;;4.22;1.05;;;17.80;99.90;;;;;;5050205;28;20048;-57
2023/08/08 09:44:16;;;;;;;4.88;1.23;;;17.70;99.90;;;;;;5067127;28;20032;-56
2023/08/08 09:46:42;;;;;;;4.35;1.30;;;17.70;99.90;;;;;;5072626;28;20083;-56
2023/08/08 09:49:10;;;;;;;8.13;1.58;;;17.50;99.90;;;;;;5090658;28;20498;-56
2023/08/08 09:51:35;;;;;;;4.85;1.33;;;17.40;99.90;;;;;;5084314;28;20625;-56
2023/08/08 09:54:02;;;;;;;12.52;2.85;;;17.00;99.90;;;;;;5063199;28;20041;-54
2023/08/08 09:56:29;;;;;;;7.45;2.00;;;17.20;99.90;;;;;;5078637;28;20467;-56
2023/08/08 09:58:56;;;;;;;7.38;2.05;;;17.40;99.90;;;;;;5069397;28;20036;-56
2023/08/08 10:01:22;;;;;;;5.72;1.23;;;17.30;99.90;;;;;;5070531;22;20049;-61
2023/08/08 10:03:51;;;;;;;6.05;1.33;;;17.30;99.90;;;;;;5085585;28;20086;-61
2023/08/08 10:06:16;;;;;;;7.72;1.73;;;17.10;99.90;;;;;;5081721;28;20410;-62
2023/08/08 10:08:42;;;;;;;5.72;1.17;;;17.30;99.90;;;;;;5087057;28;20036;-61
2023/08/08 10:11:10;;;;;;;11.52;2.00;;;17.60;99.90;;;;;;5081187;28;20478;-60
2023/08/08 10:13:36;;;;;;;4.80;1.40;;;17.50;99.90;;;;;;5086209;28;20048;-61
2023/08/08 10:16:09;;;;;;;4.93;1.77;;;17.70;99.90;;;;;;5078333;28;20071;-62
2023/08/08 10:18:35;;;;;;;4.65;1.35;;;17.70;99.90;;;;;;5077781;28;20197;-59
2023/08/08 10:21:04;;;;;;;7.72;1.27;;;17.60;99.90;;;;;;5082334;28;20044;-60
2023/08/08 10:23:36;;;;;;;6.53;1.50;;;17.50;99.90;;;;;;5087152;28;20440;-60
2023/08/08 10:26:02;;;;;;;5.47;1.40;;;17.70;99.90;;;;;;5086583;28;20055;-63
2023/08/08 10:28:28;;;;;;;6.47;1.20;;;18.10;99.90;;;;;;5079126;28;20048;-60
2023/08/08 10:30:56;;;;;;;6.57;1.10;;;18.10;99.90;;;;;;5069796;28;20043;-63
2023/08/08 10:33:24;;;;;;;6.18;1.75;;;17.90;99.90;;;;;;5084123;28;20051;-60
2023/08/08 10:36:03;;;;;;;6.80;1.77;;;17.90;99.90;;;;;;5081715;28;20494;-60
2023/08/08 10:38:59;;;;;;;8.93;1.33;;;18.10;99.90;;;;;;5078088;28;20065;-63
2023/08/08 10:41:26;;;;;;;5.05;1.17;;;18.30;99.90;;;;;;5075316;28;20503;-60
2023/08/08 10:43:56;;;;;;;3.60;1.30;;;18.50;99.90;;;;;;5082935;28;20036;-60
2023/08/08 10:46:26;;;;;;;6.30;1.60;;;18.60;99.90;;;;;;5064254;28;20076;-62
2023/08/08 10:49:02;;;;;;;4.45;1.27;;;18.80;99.90;;;;;;5071271;28;20109;-60
2023/08/08 10:51:39;;;;;;;8.38;1.50;;;18.90;99.90;;;;;;5084861;28;20284;-61
2023/08/08 10:54:17;;;;;;;4.43;1.35;;;18.40;99.90;;;;;;5083895;28;20043;-60
2023/08/08 10:56:54;;;;;;;6.20;1.42;;;18.10;99.90;;;;;;5081958;28;20043;-62
2023/08/08 10:59:23;;;;;;;5.45;1.20;;;18.30;99.90;;;;;;5082336;28;20058;-60
2023/08/08 11:01:50;;;;;;;4.55;1.20;;;18.20;99.90;;;;;;5082672;28;20115;-59
2023/08/08 11:04:20;;;;;;;6.05;1.00;;;18.20;99.90;;;;;;5067408;28;20070;-61
2023/08/08 11:06:47;;;;;;;6.55;1.33;;;18.40;99.90;;;;;;5086713;28;20046;-62
2023/08/08 11:09:13;;;;;;;7.40;1.25;;;18.70;99.90;;;;;;5078041;28;20119;-60
2023/08/08 11:11:40;;;;;;;7.53;2.08;;;18.80;99.90;;;;;;5081116;28;20043;-61
2023/08/08 11:14:17;;;;;;;4.25;1.40;;;19.00;99.90;;;;;;5085821;28;20387;-61
2023/08/08 11:16:44;;;;;;;3.78;1.23;;;19.00;99.90;;;;;;5087143;28;20478;-63
2023/08/08 11:19:11;;;;;;;6.38;1.50;;;18.90;99.80;;;;;;5079790;28;20048;-63
2023/08/08 11:21:42;;;;;;;7.85;1.60;;;19.20;99.90;;;;;;5067334;28;20066;-62
2023/08/08 11:24:09;;;;;;;4.13;1.17;;;19.30;99.90;;;;;;5078395;28;20518;-61
2023/08/08 11:26:36;;;;;;;5.70;1.27;;;19.30;99.90;;;;;;5081144;28;20038;-61
2023/08/08 11:29:05;;;;;;;4.75;1.25;;;19.30;98.90;;;;;;5087898;28;20047;-60
2023/08/08 11:31:32;;;;;;;4.97;1.48;;;19.10;99.60;;;;;;5091267;28;20063;-62
2023/08/08 11:33:59;;;;;;;6.90;1.70;;;19.10;99.90;;;;;;5084642;28;20052;-62
2023/08/08 11:36:28;;;;;;;4.03;1.45;;;19.10;99.90;;;;;;5068446;28;20059;-60
2023/08/08 11:38:54;;;;;;;7.28;1.25;;;19.00;99.90;;;;;;5085325;28;20043;-60
2023/08/08 11:41:23;;;;;;;6.53;1.42;;;18.90;99.90;;;;;;5094561;28;20186;-60
2023/08/08 11:43:51;;;;;;;6.32;1.35;;;19.10;99.90;;;;;;5081665;28;20123;-63
2023/08/08 11:46:17;;;;;;;4.80;1.67;;;19.00;99.90;;;;;;5083005;28;20047;-60
2023/08/08 11:48:45;;;;;;;6.25;1.70;;;18.70;99.90;;;;;;5059409;28;20044;-61
2023/08/08 11:51:14;;;;;;;9.55;1.88;;;18.20;99.90;;;;;;5080591;28;20036;-61
2023/08/08 11:53:52;;;;;;;6.35;1.73;;;18.20;99.90;;;;;;5083129;28;20516;-61
2023/08/08 11:56:20;;;;;;;6.20;1.48;;;18.20;99.90;;;;;;5083610;28;20048;-62
2023/08/08 11:58:50;;;;;;;6.18;1.73;;;18.10;99.90;;;;;;5084346;28;20197;-60
2023/08/08 12:01:16;;;;;;;5.30;1.70;;;18.10;99.90;;;;;;5084124;28;20598;-61
2023/08/08 12:03:42;;;;;;;7.75;1.60;;;17.90;99.90;;;;;;5082008;28;20052;-60
2023/08/08 12:06:15;;;;;;;7.80;1.58;;;18.20;99.90;;;;;;5082879;28;20051;-59
2023/08/08 12:08:43;;;;;;;4.75;1.05;;;18.40;99.90;;;;;;5085413;28;20036;-62
2023/08/08 12:11:13;;;;;;;6.95;1.55;;;18.70;99.90;;;;;;5097104;28;20398;-59
2023/08/08 12:13:43;;;;;;;8.50;1.63;;;19.10;99.90;;;;;;5081963;28;20124;-60
2023/08/08 12:16:10;;;;;;;6.65;1.45;;;19.30;99.90;;;;;;5087948;28;20036;-59
2023/08/08 12:18:40;;;;;;;5.72;1.90;;;19.60;99.90;;;;;;5087589;28;20059;-60
2023/08/08 12:21:07;;;;;;;5.60;1.67;;;19.70;99.90;;;;;;5084541;28;20142;-61
2023/08/08 12:23:34;;;;;;;8.50;1.55;;;19.90;99.90;;;;;;5072761;28;20131;-60
2023/08/08 12:26:02;;;;;;;4.25;1.13;;;19.90;99.90;;;;;;5074721;28;20036;-59
2023/08/08 12:28:29;;;;;;;6.53;1.70;;;19.80;99.90;;;;;;5080146;28;20093;-58
2023/08/08 12:30:55;;;;;;;5.60;1.60;;;19.30;99.90;;;;;;5083113;28;20046;-61
2023/08/08 12:33:20;;;;;;;6.65;1.60;;;19.30;99.90;;;;;;5089432;28;20035;-63
2023/08/08 12:35:47;;;;;;;9.70;1.48;;;18.80;99.90;;;;;;5083857;28;20044;-60
2023/08/08 12:38:14;;;;;;;7.43;1.50;;;18.90;99.90;;;;;;5062727;28;20131;-61
2023/08/08 12:40:40;;;;;;;4.32;0.93;;;19.10;99.90;;;;;;5082990;28;20040;-61
2023/08/08 12:43:05;;;;;;;5.70;1.35;;;19.10;99.90;;;;;;5084989;28;20092;-61
2023/08/08 12:45:31;;;;;;;3.30;0.80;;;19.30;99.90;;;;;;5081641;28;20573;-60
2023/08/08 12:47:57;;;;;;;5.50;1.30;;;19.40;98.70;;;;;;5088349;28;20106;-62